Time;durP1;ratioP1;P1;durP2;ratioP2;P2;SDS_P1;SDS_P2;PMS_P1;PMS_P2;Temp;Humidity;BMP_temperature;BMP_pressure;BME280_temperature;BME280_humidity;BME280_pressure;Samples;Min_cycle;Max_cycle;Signal;HPM_P1;HPM_P2
2022/10/08 00:01:03;;;;;;;47.37;12.00;;;15.20;99.90;;;;;;5047064;28;20526;-63
2022/10/08 00:03:32;;;;;;;78.33;17.83;;;15.20;99.90;;;;;;5048321;28;20491;-63
2022/10/08 00:06:00;;;;;;;34.47;11.00;;;15.20;99.90;;;;;;5047422;28;20488;-62
2022/10/08 00:08:29;;;;;;;83.83;18.07;;;15.20;99.90;;;;;;5047646;28;20494;-63
2022/10/08 00:10:59;;;;;;;59.83;16.40;;;15.20;99.90;;;;;;5048196;28;20483;-63
2022/10/08 00:13:28;;;;;;;55.37;15.40;;;15.20;99.90;;;;;;5048479;28;20490;-63
2022/10/08 00:15:55;;;;;;;38.80;12.40;;;15.40;99.90;;;;;;5042918;28;20486;-63
2022/10/08 00:18:22;;;;;;;54.57;17.40;;;15.20;99.90;;;;;;5043225;28;20857;-63
2022/10/08 00:20:49;;;;;;;54.23;15.00;;;15.20;99.90;;;;;;5046990;28;21193;-63
2022/10/08 00:23:16;;;;;;;28.33;12.33;;;15.20;99.90;;;;;;5041630;28;20486;-63
2022/10/08 00:25:45;;;;;;;46.67;13.13;;;15.30;99.90;;;;;;5046522;28;20934;-63
2022/10/08 00:28:12;;;;;;;58.03;15.50;;;15.30;99.90;;;;;;5046653;28;20701;-63
2022/10/08 00:30:40;;;;;;;75.70;19.27;;;;;;;;;;5043502;28;20558;-63
2022/10/08 00:33:08;;;;;;;82.07;17.23;;;15.40;99.90;;;;;;5029070;28;20499;-63
2022/10/08 00:35:37;;;;;;;111.03;20.57;;;15.50;99.90;;;;;;5047035;28;20491;-63
2022/10/08 00:38:04;;;;;;;83.17;16.10;;;15.50;99.90;;;;;;5055050;28;20621;-63
2022/10/08 00:40:31;;;;;;;114.23;21.90;;;15.50;99.90;;;;;;5046352;28;20806;-63
2022/10/08 00:43:02;;;;;;;45.73;12.23;;;;;;;;;;5044856;28;21063;-61
2022/10/08 00:45:29;;;;;;;120.90;23.47;;;;;;;;;;5030608;28;20487;-61
2022/10/08 00:47:56;;;;;;;71.00;17.20;;;;;;;;;;5036412;28;20491;-61
2022/10/08 00:50:30;;;;;;;75.50;18.90;;;15.60;99.90;;;;;;5036456;28;20714;-61
2022/10/08 00:53:00;;;;;;;49.17;14.33;;;15.60;99.90;;;;;;5026848;28;20476;-61
2022/10/08 00:55:28;;;;;;;95.43;20.57;;;;;;;;;;5034186;28;20881;-62
2022/10/08 00:57:57;;;;;;;55.77;14.97;;;15.70;99.90;;;;;;5031305;28;20489;-61
2022/10/08 01:00:25;;;;;;;86.60;20.83;;;15.60;99.90;;;;;;5012301;28;20794;-62
2022/10/08 01:02:53;;;;;;;78.90;18.20;;;15.60;99.90;;;;;;5042542;28;20471;-62
2022/10/08 01:05:29;;;;;;;81.60;16.80;;;15.60;99.90;;;;;;5033266;28;20508;-62
2022/10/08 01:08:02;;;;;;;80.20;17.70;;;15.60;99.90;;;;;;5034971;28;20468;-61
2022/10/08 01:10:37;;;;;;;145.70;25.37;;;15.60;99.90;;;;;;5034751;28;20477;-61
2022/10/08 01:13:11;;;;;;;71.13;17.50;;;;;;;;;;5036662;28;20475;-61
2022/10/08 01:15:45;;;;;;;79.80;17.90;;;15.50;99.90;;;;;;5034545;28;20775;-61
2022/10/08 01:18:21;;;;;;;62.07;16.20;;;15.40;99.90;;;;;;5033006;28;20488;-61
2022/10/08 01:20:57;;;;;;;73.43;16.83;;;15.40;99.90;;;;;;5036682;28;20475;-61
2022/10/08 01:23:41;;;;;;;105.60;21.43;;;15.40;99.90;;;;;;5035842;28;21155;-61
2022/10/08 01:26:22;;;;;;;60.03;15.60;;;15.50;99.90;;;;;;5028832;28;20726;-62
2022/10/08 01:28:56;;;;;;;61.37;15.60;;;15.50;99.90;;;;;;5036146;28;20515;-61
2022/10/08 01:31:28;;;;;;;64.73;17.43;;;15.50;99.90;;;;;;5038099;28;20585;-61
2022/10/08 01:33:59;;;;;;;72.07;17.10;;;15.50;99.90;;;;;;5028250;28;20478;-62
2022/10/08 01:36:28;;;;;;;67.73;18.40;;;17.80;99.90;;;;;;5023202;28;20804;-62
2022/10/08 01:39:00;;;;;;;55.13;16.20;;;15.30;99.90;;;;;;5039667;28;20480;-62
2022/10/08 01:41:30;;;;;;;102.57;22.20;;;15.30;99.90;;;;;;5021286;28;20832;-62
2022/10/08 01:44:00;;;;;;;70.50;15.63;;;;;;;;;;5026145;28;20827;-62
2022/10/08 01:46:31;;;;;;;108.47;21.70;;;15.20;99.90;;;;;;5045040;28;20472;-62
2022/10/08 01:49:00;;;;;;;62.73;16.77;;;;;;;;;;5024159;28;20820;-62
2022/10/08 01:51:31;;;;;;;90.03;20.57;;;15.30;99.90;;;;;;5034283;28;20534;-62
2022/10/08 01:54:01;;;;;;;54.60;16.40;;;15.40;99.90;;;;;;5035046;28;20964;-62
2022/10/08 01:56:31;;;;;;;108.10;23.30;;;;;;;;;;5040234;28;20478;-61
2022/10/08 01:59:02;;;;;;;58.53;15.70;;;15.20;99.90;;;;;;5041028;28;20858;-62
2022/10/08 02:01:36;;;;;;;79.13;19.63;;;15.20;99.90;;;;;;5053135;28;20494;-62
2022/10/08 02:06:53;;;;;;;59.73;16.33;;;15.10;99.90;;;;;;5052895;28;20514;-61
2022/10/08 02:09:22;;;;;;;65.07;16.33;;;15.00;99.90;;;;;;5040945;28;20919;-62
2022/10/08 02:11:48;;;;;;;62.43;17.07;;;15.00;99.90;;;;;;5065709;28;20475;-62
2022/10/08 02:14:17;;;;;;;48.93;16.20;;;15.00;99.90;;;;;;5073094;28;20482;-62
2022/10/08 02:16:48;;;;;;;53.27;12.47;;;;;;;;;;5070623;28;20485;-62
2022/10/08 02:19:22;;;;;;;50.10;16.03;;;15.20;99.90;;;;;;5066550;28;20503;-62
2022/10/08 02:21:51;;;;;;;58.20;15.53;;;15.30;99.90;;;;;;5073877;28;20486;-62
2022/10/08 02:24:27;;;;;;;39.73;14.03;;;15.30;99.90;;;;;;5069700;28;20478;-61
2022/10/08 02:26:57;;;;;;;56.27;14.13;;;15.30;99.90;;;;;;5069008;28;20505;-61
2022/10/08 02:29:28;;;;;;;65.10;15.83;;;;;;;;;;5071760;28;20474;-61
2022/10/08 02:31:58;;;;;;;50.23;13.93;;;15.30;99.90;;;;;;5069723;28;20482;-61
2022/10/08 02:34:28;;;;;;;67.97;18.37;;;;;;;;;;5072887;28;21198;-61
2022/10/08 02:37:03;;;;;;;51.23;14.77;;;15.20;99.90;;;;;;5073013;28;20901;-62
2022/10/08 02:39:32;;;;;;;102.50;22.63;;;15.10;99.90;;;;;;5046385;28;20741;-62
2022/10/08 02:42:01;;;;;;;59.03;14.83;;;;;;;;;;5050100;28;20506;-61
2022/10/08 02:44:35;;;;;;;87.07;20.37;;;14.90;99.90;;;;;;5047380;28;20482;-61
2022/10/08 02:47:07;;;;;;;50.10;14.43;;;14.90;99.90;;;;;;5051021;28;20483;-61
2022/10/08 02:49:37;;;;;;;87.90;17.90;;;14.70;99.90;;;;;;5037576;28;20475;-61
2022/10/08 02:52:07;;;;;;;51.13;14.17;;;14.50;99.90;;;;;;5043339;28;20475;-61
2022/10/08 02:54:38;;;;;;;84.63;19.37;;;14.30;99.90;;;;;;5042597;28;20701;-61
2022/10/08 02:57:08;;;;;;;49.30;12.77;;;;;;;;;;5051928;28;20477;-61
2022/10/08 02:59:37;;;;;;;82.90;19.00;;;;;;;;;;5035750;28;20921;-61
2022/10/08 03:02:05;;;;;;;56.40;14.50;;;14.10;99.90;;;;;;5034804;28;20475;-61
2022/10/08 03:04:36;;;;;;;84.70;19.60;;;14.10;99.90;;;;;;5046418;28;20471;-61
2022/10/08 03:07:03;;;;;;;86.67;17.03;;;14.00;99.90;;;;;;5044760;28;20533;-61
2022/10/08 03:09:34;;;;;;;131.00;22.30;;;13.90;99.90;;;;;;5045481;28;20486;-61
2022/10/08 03:12:01;;;;;;;54.87;13.67;;;;;;;;;;5045475;28;20664;-60
2022/10/08 03:14:30;;;;;;;53.40;15.33;;;13.70;99.90;;;;;;5044608;28;20483;-61
2022/10/08 03:16:58;;;;;;;51.77;12.90;;;;;;;;;;5029252;28;21035;-60
2022/10/08 03:19:25;;;;;;;90.93;20.20;;;;;;;;;;5033698;28;20491;-61
2022/10/08 03:21:55;;;;;;;55.13;13.80;;;13.70;99.90;;;;;;5052010;28;20562;-60
2022/10/08 03:24:22;;;;;;;65.90;16.60;;;;;;;;;;5046056;28;21239;-60
2022/10/08 03:26:49;;;;;;;64.50;15.43;;;;;;;;;;5070203;28;20491;-61
2022/10/08 03:29:16;;;;;;;44.63;12.20;;;;;;;;;;5051749;28;20597;-61
2022/10/08 03:31:43;;;;;;;63.57;14.10;;;;;;;;;;5050780;28;20479;-60
2022/10/08 03:34:11;;;;;;;67.73;15.27;;;12.80;99.90;;;;;;5034704;28;20874;-61
2022/10/08 03:36:38;;;;;;;79.70;17.10;;;;;;;;;;5052655;28;20479;-60
2022/10/08 03:39:05;;;;;;;63.27;15.43;;;;;;;;;;5055163;28;20475;-61
2022/10/08 03:41:32;;;;;;;92.33;19.00;;;12.60;99.90;;;;;;5054364;28;20478;-61
2022/10/08 03:43:59;;;;;;;68.70;14.40;;;;;;;;;;5056777;28;20484;-61
2022/10/08 03:46:26;;;;;;;72.50;16.17;;;;;;;;;;5056326;28;20494;-60
2022/10/08 03:48:54;;;;;;;49.40;12.97;;;;;;;;;;5061002;28;20493;-61
2022/10/08 03:51:22;;;;;;;48.53;13.07;;;12.40;99.90;;;;;;5058107;28;20483;-60
2022/10/08 03:53:49;;;;;;;60.70;14.57;;;12.30;99.90;;;;;;5062503;28;20566;-60
2022/10/08 03:56:18;;;;;;;43.10;12.70;;;12.30;99.90;;;;;;5053749;28;20479;-61
2022/10/08 03:58:46;;;;;;;54.43;14.00;;;12.20;99.90;;;;;;5055186;28;20510;-61
2022/10/08 04:01:14;;;;;;;57.10;14.67;;;12.10;99.90;;;;;;5053014;28;20490;-60
2022/10/08 04:03:41;;;;;;;56.83;12.90;;;12.20;99.90;;;;;;5054054;28;20489;-61
2022/10/08 04:06:08;;;;;;;59.87;13.50;;;12.30;99.90;;;;;;5053412;28;20479;-61
2022/10/08 04:08:36;;;;;;;88.67;17.53;;;12.40;99.90;;;;;;5055124;28;22506;-61
2022/10/08 04:11:04;;;;;;;59.80;14.03;;;12.30;99.90;;;;;;5056440;28;20483;-61
2022/10/08 04:13:31;;;;;;;105.17;20.63;;;12.30;99.90;;;;;;5053273;28;20866;-61
2022/10/08 04:16:02;;;;;;;50.90;12.40;;;12.30;99.90;;;;;;5053582;28;20491;-61
2022/10/08 04:18:29;;;;;;;86.33;19.57;;;;;;;;;;5053484;28;20483;-61
2022/10/08 04:20:58;;;;;;;51.10;12.23;;;;;;;;;;5058931;28;20755;-61
2022/10/08 04:23:25;;;;;;;39.07;12.17;;;;;;;;;;5061781;28;20585;-61
2022/10/08 04:25:54;;;;;;;36.10;10.67;;;;;;;;;;5060136;28;20485;-61
2022/10/08 04:28:21;;;;;;;47.73;13.07;;;11.80;99.90;;;;;;5057169;28;20922;-60
2022/10/08 04:30:56;;;;;;;47.70;11.00;;;11.70;99.90;;;;;;5057913;28;20503;-61
2022/10/08 04:33:23;;;;;;;54.97;13.43;;;;;;;;;;5059326;28;20564;-61
2022/10/08 04:35:50;;;;;;;51.30;12.20;;;;;;;;;;5054997;28;20475;-61
2022/10/08 04:38:17;;;;;;;43.53;13.10;;;;;;;;;;5055836;28;20491;-61
2022/10/08 04:40:44;;;;;;;43.83;11.30;;;;;;;;;;5058653;28;20475;-61
2022/10/08 04:43:12;;;;;;;50.67;11.73;;;12.00;99.90;;;;;;5059894;28;20478;-62
2022/10/08 04:45:42;;;;;;;81.87;15.53;;;11.60;99.90;;;;;;5054550;28;20478;-61
2022/10/08 04:48:09;;;;;;;60.17;12.60;;;11.60;99.90;;;;;;5053656;28;20573;-62
2022/10/08 04:50:36;;;;;;;93.00;18.00;;;;;;;;;;5057222;28;20478;-61
2022/10/08 04:53:04;;;;;;;61.87;13.53;;;;;;;;;;5053099;28;20487;-61
2022/10/08 04:55:31;;;;;;;90.87;19.70;;;;;;;;;;5054950;28;20487;-61
2022/10/08 04:57:58;;;;;;;66.17;14.03;;;;;;;;;;5060621;28;20828;-61
2022/10/08 05:00:26;;;;;;;60.13;14.50;;;11.40;99.90;;;;;;5053684;28;20554;-61
2022/10/08 05:02:53;;;;;;;52.00;11.83;;;;;;;;;;5054522;28;20489;-61
2022/10/08 05:05:20;;;;;;;62.53;13.50;;;;;;;;;;5062981;28;20791;-61
2022/10/08 05:07:47;;;;;;;53.13;11.40;;;;;;;;;;5056789;28;20540;-61
2022/10/08 05:10:15;;;;;;;65.60;14.97;;;;;;;;;;5053517;28;20834;-61
2022/10/08 05:12:42;;;;;;;67.87;14.70;;;;;;;;;;5057880;28;20467;-61
2022/10/08 05:15:10;;;;;;;55.13;12.77;;;10.80;99.90;;;;;;5054639;28;20487;-61
2022/10/08 05:17:38;;;;;;;79.90;15.93;;;;;;;;;;5052043;28;20846;-61
2022/10/08 05:20:07;;;;;;;57.23;13.27;;;10.90;99.90;;;;;;5051660;28;20566;-61
2022/10/08 05:22:34;;;;;;;80.70;16.80;;;;;;;;;;5057393;28;20483;-61
2022/10/08 05:25:01;;;;;;;68.10;14.40;;;;;;;;;;5056233;28;20490;-61
2022/10/08 05:27:28;;;;;;;92.37;19.80;;;;;;;;;;5047275;28;20972;-61
2022/10/08 05:29:55;;;;;;;59.57;14.83;;;;;;;;;;5068891;28;20471;-61
2022/10/08 05:32:22;;;;;;;43.33;12.43;;;;;;;;;;5053895;28;20483;-61
2022/10/08 05:34:50;;;;;;;45.77;10.13;;;;;;;;;;5055779;28;20833;-61
2022/10/08 05:37:17;;;;;;;74.83;13.80;;;;;;;;;;5058788;28;20877;-62
2022/10/08 05:39:44;;;;;;;54.13;10.57;;;;;;;;;;5053324;28;20952;-61
2022/10/08 05:42:12;;;;;;;51.03;12.17;;;;;;;;;;5051142;28;21011;-62
2022/10/08 05:44:39;;;;;;;63.37;13.33;;;;;;;;;;5054132;28;20663;-62
2022/10/08 05:47:06;;;;;;;48.70;12.03;;;;;;;;;;5053900;28;20547;-61
2022/10/08 05:49:33;;;;;;;92.20;16.67;;;;;;;;;;5059493;28;20478;-61
2022/10/08 05:52:02;;;;;;;46.43;10.10;;;10.70;99.90;;;;;;5054135;28;20480;-61
2022/10/08 05:54:29;;;;;;;83.07;16.20;;;;;;;;;;5052415;28;20861;-61
2022/10/08 05:56:55;;;;;;;49.37;10.87;;;10.60;99.90;;;;;;5054914;28;20896;-61
2022/10/08 05:59:24;;;;;;;39.07;11.57;;;;;;;;;;5057535;28;20481;-61
2022/10/08 06:01:51;;;;;;;39.00;10.20;;;10.50;99.90;;;;;;5048456;28;20487;-61
2022/10/08 06:04:18;;;;;;;35.63;10.43;;;;;;;;;;5043155;28;20873;-61
2022/10/08 06:06:45;;;;;;;38.87;11.63;;;10.40;99.90;;;;;;5064493;28;20475;-62
2022/10/08 06:09:16;;;;;;;62.67;13.83;;;10.10;99.90;;;;;;5065738;28;20831;-62
2022/10/08 06:11:44;;;;;;;45.33;11.23;;;;;;;;;;5058909;28;20537;-62
2022/10/08 06:14:12;;;;;;;54.10;11.10;;;10.30;99.90;;;;;;5059492;28;21038;-62
2022/10/08 06:16:39;;;;;;;62.43;14.70;;;10.30;99.90;;;;;;5059485;28;20821;-62
2022/10/08 06:19:07;;;;;;;45.43;11.90;;;;;;;;;;5055584;28;20479;-61
2022/10/08 06:21:35;;;;;;;79.17;18.10;;;10.10;99.90;;;;;;5065560;28;20475;-61
2022/10/08 06:24:03;;;;;;;51.67;13.90;;;10.10;99.90;;;;;;5060798;28;20487;-61
2022/10/08 06:26:34;;;;;;;91.37;19.33;;;10.20;99.90;;;;;;5052267;28;20483;-61
2022/10/08 06:29:00;;;;;;;46.97;11.10;;;10.30;99.90;;;;;;5054501;28;20478;-62
2022/10/08 06:31:28;;;;;;;76.27;17.43;;;;;;;;;;5055176;28;20484;-63
2022/10/08 06:33:56;;;;;;;45.83;12.50;;;10.50;99.90;;;;;;5043985;28;20472;-62
2022/10/08 06:36:24;;;;;;;47.27;13.37;;;;;;;;;;5054363;28;20521;-63
2022/10/08 06:38:51;;;;;;;47.00;11.70;;;10.70;99.90;;;;;;5061815;28;20490;-63
2022/10/08 06:41:18;;;;;;;51.70;13.80;;;;;;;;;;5062667;28;20476;-62
2022/10/08 06:43:47;;;;;;;45.73;11.77;;;11.00;99.90;;;;;;5068984;28;20708;-63
2022/10/08 06:46:14;;;;;;;42.23;12.00;;;;;;;;;;5055930;28;20483;-63
2022/10/08 06:48:41;;;;;;;54.67;12.13;;;;;;;;;;5056501;28;20483;-62
2022/10/08 06:51:11;;;;;;;62.40;15.30;;;11.80;99.90;;;;;;5065807;28;20560;-63
2022/10/08 06:53:39;;;;;;;61.60;15.73;;;12.20;99.90;;;;;;5053611;28;20762;-63
2022/10/08 06:56:09;;;;;;;40.10;12.00;;;12.60;99.90;;;;;;5056697;28;20491;-62
2022/10/08 06:58:37;;;;;;;80.17;21.40;;;13.20;99.90;;;;;;5049171;28;21038;-63
2022/10/08 07:01:07;;;;;;;46.43;14.50;;;14.20;99.90;;;;;;5054235;28;20484;-62
2022/10/08 07:03:34;;;;;;;51.90;18.03;;;;;;;;;;5055464;28;20470;-63
2022/10/08 07:06:01;;;;;;;34.40;12.47;;;15.40;99.90;;;;;;5057697;28;20478;-63
2022/10/08 07:08:28;;;;;;;34.70;12.67;;;;;;;;;;5052700;28;20474;-63
2022/10/08 07:10:55;;;;;;;37.93;13.40;;;16.00;98.80;;;;;;5056709;28;20476;-63
2022/10/08 07:13:22;;;;;;;26.80;10.37;;;16.00;98.90;;;;;;5056087;28;20476;-63
2022/10/08 07:15:49;;;;;;;48.43;13.90;;;;;;;;;;5059544;28;20471;-63
2022/10/08 07:18:17;;;;;;;28.70;10.30;;;15.80;99.30;;;;;;5048330;28;20506;-63
2022/10/08 07:20:44;;;;;;;35.97;11.03;;;15.90;99.40;;;;;;5065060;28;20479;-63
2022/10/08 07:23:11;;;;;;;22.87;9.60;;;;;;;;;;5057177;28;20864;-63
2022/10/08 07:25:38;;;;;;;42.77;13.60;;;;;;;;;;5055534;28;20766;-63
2022/10/08 07:28:05;;;;;;;34.43;11.73;;;17.20;98.00;;;;;;5054520;28;20484;-63
2022/10/08 07:30:32;;;;;;;58.60;16.00;;;;;;;;;;5057052;28;20481;-63
2022/10/08 07:32:59;;;;;;;28.43;10.70;;;17.00;97.70;;;;;;5051256;28;20481;-63
2022/10/08 07:35:29;;;;;;;35.70;11.20;;;16.80;97.90;;;;;;5053626;28;20554;-63
2022/10/08 07:37:55;;;;;;;47.50;14.97;;;16.70;98.00;;;;;;5046580;28;21030;-63
2022/10/08 07:40:22;;;;;;;26.43;9.47;;;16.50;98.20;;;;;;5042899;28;20502;-63
2022/10/08 07:42:50;;;;;;;37.10;12.40;;;16.60;98.20;;;;;;5058644;28;20804;-63
2022/10/08 07:45:17;;;;;;;43.83;10.40;;;16.80;98.20;;;;;;5057362;28;20589;-63
2022/10/08 07:47:44;;;;;;;26.10;9.30;;;;;;;;;;5060619;28;20483;-63
2022/10/08 07:50:11;;;;;;;27.30;10.20;;;;;;;;;;5051914;28;20949;-63
2022/10/08 07:52:39;;;;;;;41.07;11.53;;;18.50;96.90;;;;;;5051535;28;20869;-63
2022/10/08 07:55:07;;;;;;;28.60;10.93;;;18.40;95.70;;;;;;5036024;28;20476;-63
2022/10/08 07:57:33;;;;;;;42.97;12.93;;;18.30;96.00;;;;;;5034408;28;20915;-63
2022/10/08 08:00:00;;;;;;;37.37;10.30;;;18.00;96.70;;;;;;5031115;28;20485;-63
2022/10/08 08:02:27;;;;;;;43.00;14.00;;;17.80;96.90;;;;;;5032931;28;20472;-63
2022/10/08 08:04:54;;;;;;;40.17;13.40;;;17.70;96.40;;;;;;5038828;28;20920;-63
2022/10/08 08:07:21;;;;;;;29.13;8.40;;;;;;;;;;5068092;28;20478;-63
2022/10/08 08:09:49;;;;;;;35.80;9.10;;;17.80;96.50;;;;;;5071900;28;20483;-63
2022/10/08 08:12:15;;;;;;;19.53;8.30;;;18.00;97.10;;;;;;5059417;28;20482;-63
2022/10/08 08:14:42;;;;;;;33.17;11.33;;;18.10;95.70;;;;;;5048047;28;20487;-63
2022/10/08 08:17:09;;;;;;;31.07;9.33;;;18.10;95.40;;;;;;5048962;28;20490;-64
2022/10/08 08:19:39;;;;;;;38.23;11.80;;;18.10;96.30;;;;;;5024541;28;21336;-64
2022/10/08 08:22:05;;;;;;;13.93;5.90;;;17.80;95.70;;;;;;5033420;28;20541;-63
2022/10/08 08:24:32;;;;;;;38.67;12.13;;;17.60;94.90;;;;;;5033950;28;20492;-63
2022/10/08 08:27:00;;;;;;;26.20;9.27;;;21.50;97.40;;;;;;5031174;28;20484;-63
2022/10/08 08:29:27;;;;;;;32.00;10.00;;;17.20;95.70;;;;;;5025351;28;20481;-64
2022/10/08 08:31:54;;;;;;;36.53;9.87;;;;;;;;;;5030207;28;20488;-63
2022/10/08 08:34:24;;;;;;;31.60;7.93;;;17.10;96.70;;;;;;5034295;28;21769;-63
2022/10/08 08:36:53;;;;;;;22.80;7.30;;;17.10;96.30;;;;;;5030421;28;20487;-63
2022/10/08 08:39:21;;;;;;;21.53;7.50;;;;;;;;;;5029272;28;21173;-63
2022/10/08 08:42:04;;;;;;;28.63;9.07;;;17.20;96.70;;;;;;5041187;28;20511;-63
2022/10/08 08:44:34;;;;;;;60.27;14.20;;;17.30;96.60;;;;;;5032482;28;20471;-63
2022/10/08 08:47:04;;;;;;;41.60;11.20;;;17.60;96.30;;;;;;5037800;28;20489;-63
2022/10/08 08:49:33;;;;;;;60.73;14.60;;;17.90;96.30;;;;;;5035452;28;20479;-63
2022/10/08 08:52:03;;;;;;;42.93;10.60;;;17.80;95.60;;;;;;5038595;28;21129;-63
2022/10/08 08:54:30;;;;;;;48.13;13.90;;;17.60;94.90;;;;;;5040845;28;20488;-64
2022/10/08 08:57:08;;;;;;;40.50;9.27;;;17.40;96.00;;;;;;5028629;28;20586;-63
2022/10/08 08:59:38;;;;;;;45.17;12.20;;;;;;;;;;5048676;28;20893;-63
2022/10/08 09:02:15;;;;;;;43.30;8.70;;;17.50;96.60;;;;;;5036982;28;20875;-63
2022/10/08 09:04:47;;;;;;;25.37;7.83;;;17.40;96.20;;;;;;5051056;28;20474;-63
2022/10/08 09:07:18;;;;;;;43.97;9.27;;;17.40;96.10;;;;;;5054758;28;20471;-63
2022/10/08 09:09:48;;;;;;;31.10;8.40;;;17.60;96.10;;;;;;5044234;28;20467;-63
2022/10/08 09:12:19;;;;;;;37.53;8.67;;;17.80;96.40;;;;;;5044511;28;20975;-63
2022/10/08 09:14:53;;;;;;;29.57;7.93;;;17.80;95.30;;;;;;5052627;28;20483;-64
2022/10/08 09:17:21;;;;;;;22.90;6.63;;;;;;;;;;5042177;28;20472;-63
2022/10/08 09:19:49;;;;;;;35.40;7.80;;;17.80;94.90;;;;;;5053882;28;20490;-63
2022/10/08 09:22:21;;;;;;;24.73;7.20;;;17.70;94.90;;;;;;5045640;28;20468;-63
2022/10/08 09:24:51;;;;;;;43.63;9.87;;;;;;;;;;5045157;28;20554;-63
2022/10/08 09:27:19;;;;;;;39.17;7.70;;;17.40;94.70;;;;;;5054705;28;20710;-63
2022/10/08 09:29:46;;;;;;;23.23;6.40;;;17.30;95.40;;;;;;5055299;28;20467;-63
2022/10/08 09:32:18;;;;;;;35.33;9.10;;;17.30;95.80;;;;;;5054025;28;20835;-63
2022/10/08 09:34:47;;;;;;;32.13;9.27;;;17.40;96.30;;;;;;5051657;28;20467;-63
2022/10/08 09:37:18;;;;;;;25.93;6.43;;;;;;;;;;5054379;28;20494;-63
2022/10/08 09:40:07;;;;;;;38.07;10.33;;;17.30;95.60;;;;;;5047368;28;20923;-63
2022/10/08 09:42:36;;;;;;;55.57;12.70;;;17.40;96.60;;;;;;5050787;28;20522;-63
2022/10/08 09:45:04;;;;;;;38.60;10.33;;;17.30;94.90;;;;;;5052184;28;20479;-63
2022/10/08 09:47:31;;;;;;;55.17;12.43;;;;;;;;;;5052180;28;20493;-63
2022/10/08 09:50:06;;;;;;;41.37;9.00;;;17.30;95.80;;;;;;5051789;28;20476;-63
2022/10/08 09:52:34;;;;;;;41.03;9.50;;;;;;;;;;5052445;28;20490;-63
2022/10/08 09:55:07;;;;;;;40.10;9.20;;;17.40;95.60;;;;;;5053945;28;20480;-63
2022/10/08 09:57:34;;;;;;;50.70;12.53;;;;;;;;;;5051003;28;20792;-63
2022/10/08 10:00:05;;;;;;;35.27;9.40;;;17.50;96.20;;;;;;5038744;28;20499;-63
2022/10/08 10:02:34;;;;;;;42.70;10.87;;;17.40;95.60;;;;;;5047006;28;20933;-63
2022/10/08 10:05:03;;;;;;;24.30;7.03;;;17.50;95.70;;;;;;5048980;28;21057;-63
2022/10/08 10:07:39;;;;;;;47.77;13.00;;;17.50;95.20;;;;;;5059722;28;20478;-63
2022/10/08 10:10:14;;;;;;;35.97;9.70;;;17.60;95.60;;;;;;5062505;28;20894;-62
2022/10/08 10:12:45;;;;;;;33.77;8.53;;;17.50;94.70;;;;;;5058551;28;20850;-63
2022/10/08 10:15:18;;;;;;;31.63;8.17;;;17.70;95.20;;;;;;5054944;28;20482;-63
2022/10/08 10:17:49;;;;;;;39.97;7.60;;;17.90;95.70;;;;;;5058957;28;20474;-63
2022/10/08 10:20:22;;;;;;;21.10;6.43;;;18.20;95.30;;;;;;5062248;28;20946;-63
2022/10/08 10:22:54;;;;;;;27.40;5.97;;;18.50;94.00;;;;;;5049565;28;20486;-63
2022/10/08 10:25:30;;;;;;;21.03;6.60;;;18.50;94.10;;;;;;5053055;28;20492;-63
2022/10/08 10:27:59;;;;;;;33.03;8.97;;;;;;;;;;5039665;28;20475;-63
2022/10/08 10:30:28;;;;;;;37.57;11.17;;;18.30;94.50;;;;;;5048733;28;20874;-63
2022/10/08 10:33:01;;;;;;;29.87;8.43;;;18.40;94.10;;;;;;5051904;28;20483;-62
2022/10/08 10:35:30;;;;;;;38.13;10.43;;;18.30;94.40;;;;;;5050966;28;20972;-63
2022/10/08 10:38:05;;;;;;;49.00;10.37;;;18.30;93.50;;;;;;5048747;28;20494;-63
2022/10/08 10:40:36;;;;;;;52.00;13.77;;;18.40;93.00;;;;;;5049106;28;20834;-63
2022/10/08 10:43:18;;;;;;;40.20;8.67;;;;;;;;;;5053018;28;20476;-63
2022/10/08 10:45:48;;;;;;;26.03;6.83;;;;;;;;;;5055928;28;20479;-63
2022/10/08 10:48:15;;;;;;;21.43;6.03;;;18.70;93.80;;;;;;5050687;28;20942;-63
2022/10/08 10:50:48;;;;;;;33.80;7.77;;;18.70;93.50;;;;;;5056562;28;20509;-62
2022/10/08 10:53:21;;;;;;;26.30;7.13;;;18.50;93.00;;;;;;5049871;28;20902;-63
2022/10/08 10:55:51;;;;;;;24.43;6.73;;;;;;;;;;5049448;28;20983;-63
2022/10/08 10:58:36;;;;;;;19.53;5.90;;;18.20;93.10;;;;;;5038319;28;20849;-63
2022/10/08 11:01:14;;;;;;;38.63;10.20;;;18.20;93.20;;;;;;5049025;28;20471;-63
2022/10/08 11:03:46;;;;;;;30.47;7.13;;;18.00;93.40;;;;;;5052608;28;20844;-63
2022/10/08 11:06:47;;;;;;;31.67;7.20;;;18.00;93.40;;;;;;5047342;28;20862;-63
2022/10/08 11:09:26;;;;;;;27.10;4.60;;;17.90;93.70;;;;;;5048759;28;20602;-63
2022/10/08 11:11:55;;;;;;;43.97;9.80;;;17.80;93.40;;;;;;5049856;28;20489;-63
2022/10/08 11:14:39;;;;;;;32.80;7.87;;;;;;;;;;5050934;28;21019;-63
2022/10/08 11:17:26;;;;;;;36.83;9.10;;;17.80;94.30;;;;;;5036858;28;20491;-63
2022/10/08 11:20:03;;;;;;;30.00;8.20;;;17.70;94.20;;;;;;5033022;28;20489;-63
2022/10/08 11:22:37;;;;;;;42.83;10.60;;;17.60;94.50;;;;;;5051073;28;20688;-62
2022/10/08 11:25:23;;;;;;;40.00;8.87;;;17.50;94.70;;;;;;5052529;28;20766;-63
2022/10/08 11:28:06;;;;;;;30.17;7.47;;;17.40;94.70;;;;;;5051154;28;20482;-63
2022/10/08 11:30:42;;;;;;;49.67;11.63;;;17.40;94.90;;;;;;5051617;28;20480;-63
2022/10/08 11:33:12;;;;;;;25.93;7.23;;;17.50;94.80;;;;;;5050203;28;20475;-63
2022/10/08 11:35:46;;;;;;;43.27;10.47;;;17.50;94.60;;;;;;5049203;28;20904;-63
2022/10/08 11:38:21;;;;;;;28.03;7.80;;;17.60;95.00;;;;;;5049460;28;20514;-63
2022/10/08 11:40:53;;;;;;;32.23;8.97;;;17.60;94.90;;;;;;5053158;28;20958;-63
2022/10/08 11:43:27;;;;;;;24.93;6.10;;;17.60;94.90;;;;;;5051613;28;20492;-63
2022/10/08 11:46:12;;;;;;;35.90;7.80;;;17.70;94.90;;;;;;5048970;28;20467;-62
2022/10/08 11:48:41;;;;;;;32.33;9.20;;;;;;;;;;5050372;28;20743;-63
2022/10/08 11:51:44;;;;;;;34.33;7.53;;;18.20;95.20;;;;;;5047467;28;20478;-63
2022/10/08 11:54:15;;;;;;;39.10;7.43;;;18.20;94.30;;;;;;5031399;28;20471;-63
2022/10/08 11:56:44;;;;;;;24.30;7.63;;;;;;;;;;5038029;28;20487;-63
2022/10/08 11:59:36;;;;;;;29.63;7.60;;;18.40;94.20;;;;;;5046810;28;20484;-63
2022/10/08 12:02:06;;;;;;;32.67;8.27;;;18.50;94.10;;;;;;5012837;28;20472;-62
2022/10/08 12:04:36;;;;;;;38.93;10.00;;;18.40;93.80;;;;;;5034593;28;20476;-63
2022/10/08 12:07:15;;;;;;;31.43;9.30;;;18.50;94.20;;;;;;5036452;28;21693;-63
2022/10/08 12:10:02;;;;;;;23.93;6.90;;;18.50;94.10;;;;;;5017705;28;20900;-63
2022/10/08 12:12:44;;;;;;;49.50;13.70;;;;;;;;;;5018976;28;20792;-63
2022/10/08 12:15:44;;;;;;;41.63;8.57;;;18.50;93.90;;;;;;5028814;28;21020;-63
2022/10/08 12:18:49;;;;;;;29.77;8.30;;;18.40;93.70;;;;;;5047347;28;20950;-62
2022/10/08 12:21:48;;;;;;;22.43;7.80;;;18.40;93.70;;;;;;5050629;28;20482;-62
2022/10/08 12:24:57;;;;;;;27.93;7.10;;;18.20;93.30;;;;;;5051020;28;20482;-62
2022/10/08 12:27:36;;;;;;;34.77;9.50;;;18.20;93.90;;;;;;5046754;28;20471;-62
2022/10/08 12:30:07;;;;;;;34.70;6.90;;;18.30;94.20;;;;;;5041365;28;21064;-62
2022/10/08 12:32:51;;;;;;;60.10;13.43;;;;;;;;;;5051306;28;20471;-62
2022/10/08 12:35:23;;;;;;;21.90;6.67;;;18.40;94.40;;;;;;5040887;28;20866;-63
2022/10/08 12:38:14;;;;;;;40.97;9.73;;;18.70;93.50;;;;;;5053481;28;20491;-62
2022/10/08 12:40:45;;;;;;;30.83;8.17;;;18.60;93.80;;;;;;5041086;28;20564;-62
2022/10/08 12:43:22;;;;;;;32.70;9.87;;;18.70;93.50;;;;;;5051643;28;20479;-62
2022/10/08 12:45:57;;;;;;;23.60;6.17;;;19.10;94.80;;;;;;5053572;28;20816;-62
2022/10/08 12:48:33;;;;;;;32.10;9.37;;;19.30;92.50;;;;;;5054692;28;20483;-62
2022/10/08 12:51:17;;;;;;;34.83;8.00;;;19.50;92.80;;;;;;5040234;28;20476;-62
2022/10/08 12:53:47;;;;;;;23.10;6.97;;;19.80;92.30;;;;;;5028091;28;20488;-62
2022/10/08 12:56:17;;;;;;;22.97;5.43;;;20.00;92.70;;;;;;5041458;28;20472;-62
2022/10/08 12:58:47;;;;;;;26.23;6.63;;;20.10;91.40;;;;;;5037653;28;20483;-63
2022/10/08 13:01:17;;;;;;;24.33;6.70;;;20.50;92.90;;;;;;5039979;28;20488;-62
2022/10/08 13:03:44;;;;;;;33.80;8.33;;;;;;;;;;5043320;28;21116;-62
2022/10/08 13:06:16;;;;;;;24.87;7.43;;;21.00;92.10;;;;;;5038775;28;20491;-62
2022/10/08 13:08:44;;;;;;;25.53;7.00;;;21.40;91.00;;;;;;5037200;28;20595;-62
2022/10/08 13:11:13;;;;;;;31.90;9.80;;;21.70;91.80;;;;;;5049079;28;20483;-63
2022/10/08 13:13:47;;;;;;;31.97;8.40;;;21.90;89.80;;;;;;5037846;28;20562;-63
2022/10/08 13:16:16;;;;;;;26.57;6.90;;;21.50;88.40;;;;;;5033856;28;20463;-63
2022/10/08 13:18:44;;;;;;;30.73;8.77;;;;;;;;;;5032902;28;20505;-63
2022/10/08 13:21:27;;;;;;;24.17;7.40;;;21.40;88.90;;;;;;5038126;28;20484;-63